Time;durP1;ratioP1;P1;durP2;ratioP2;P2;SDS_P1;SDS_P2;PMS_P1;PMS_P2;Temp;Humidity;BMP_temperature;BMP_pressure;BME280_temperature;BME280_humidity;BME280_pressure;Samples;Min_cycle;Max_cycle;Signal;HPM_P1;HPM_P2
2023/12/03 00:01:20;;;;;;;20.40;8.87;;;;;;;;;;4378353;32;318736;-75
2023/12/03 00:03:47;;;;;;;27.57;9.33;;;;;;;;;;4389842;32;318776;-79
2023/12/03 00:06:14;;;;;;;28.90;9.37;;;;;;;;;;4389496;32;332074;-80
2023/12/03 00:08:41;;;;;;;29.90;8.63;;;;;;;;;;4368030;32;419194;-80
2023/12/03 00:11:08;;;;;;;24.33;8.07;;;;;;;;;;4373408;32;318608;-79
2023/12/03 00:13:35;;;;;;;34.43;7.67;;;;;;;;;;4363452;32;318721;-80
2023/12/03 00:16:02;;;;;;;31.53;7.73;;;;;;;;;;4373736;32;318799;-78
2023/12/03 00:18:30;;;;;;;24.77;8.90;;;;;;;;;;4363236;32;319008;-77
2023/12/03 00:20:57;;;;;;;34.70;10.93;;;;;;;;;;4374212;32;318590;-79
2023/12/03 00:23:24;;;;;;;31.80;10.53;;;;;;;;;;4363754;32;320640;-76
2023/12/03 00:25:51;;;;;;;43.73;10.47;;;;;;;;;;4374265;32;319720;-76
2023/12/03 00:28:18;;;;;;;38.53;11.47;;;;;;;;;;4364225;32;319357;-78
2023/12/03 00:30:45;;;;;;;34.07;9.90;;;;;;;;;;4374077;32;320102;-75
2023/12/03 00:33:12;;;;;;;31.50;11.80;;;;;;;;;;4374049;32;318762;-75
2023/12/03 00:35:41;;;;;;;33.57;11.53;;;;;;;;;;4363045;32;320571;-75
2023/12/03 00:38:08;;;;;;;34.57;10.93;;;;;;;;;;4373969;32;319667;-76
2023/12/03 00:40:35;;;;;;;34.40;11.60;;;;;;;;;;4363525;32;319455;-78
2023/12/03 00:43:01;;;;;;;30.30;11.57;;;;;;;;;;4374294;32;319798;-75
2023/12/03 00:45:28;;;;;;;38.70;10.23;;;;;;;;;;4363829;32;319492;-75
2023/12/03 00:47:55;;;;;;;28.87;11.10;;;;;;;;;;4374283;32;319521;-78
2023/12/03 00:50:22;;;;;;;39.73;12.40;;;;;;;;;;4363073;32;319921;-75
2023/12/03 00:52:51;;;;;;;30.97;10.17;;;;;;;;;;4374070;32;319556;-78
2023/12/03 00:55:18;;;;;;;37.00;13.63;;;;;;;;;;4364016;32;319549;-75
2023/12/03 00:57:45;;;;;;;43.13;13.80;;;;;;;;;;4373802;32;318977;-77
2023/12/03 01:00:13;;;;;;;29.57;10.97;;;;;;;;;;4373714;32;319631;-77
2023/12/03 01:02:40;;;;;;;31.17;10.07;;;;;;;;;;4359524;32;420888;-76
2023/12/03 01:05:08;;;;;;;40.90;11.00;;;;;;;;;;4372569;32;319707;-75
2023/12/03 01:07:34;;;;;;;25.87;8.17;;;;;;;;;;4363859;32;319650;-75
2023/12/03 01:10:03;;;;;;;33.90;9.30;;;;;;;;;;4373758;32;318671;-76
2023/12/03 01:12:30;;;;;;;23.10;8.67;;;;;;;;;;4362355;32;318947;-76
2023/12/03 01:14:57;;;;;;;24.70;8.17;;;;;;;;;;4373134;32;334449;-79
2023/12/03 01:17:24;;;;;;;26.87;7.13;;;;;;;;;;4362035;32;324324;-76
2023/12/03 01:19:51;;;;;;;21.83;5.93;;;;;;;;;;4373675;32;318568;-77
2023/12/03 01:22:18;;;;;;;30.57;6.47;;;;;;;;;;4363786;32;318724;-78
2023/12/03 01:24:45;;;;;;;24.37;6.30;;;;;;;;;;4372681;32;318240;-75
2023/12/03 01:27:13;;;;;;;23.17;7.53;;;;;;;;;;4373656;32;318575;-76
2023/12/03 01:29:40;;;;;;;39.27;5.43;;;;;;;;;;4359531;32;417286;-76
2023/12/03 01:32:07;;;;;;;28.40;8.90;;;;;;;;;;4371531;32;345471;-74
2023/12/03 01:34:34;;;;;;;39.17;8.57;;;;;;;;;;4361982;32;318776;-74
2023/12/03 01:37:01;;;;;;;34.13;10.27;;;;;;;;;;4373342;32;317872;-75
2023/12/03 01:39:28;;;;;;;24.53;8.57;;;;;;;;;;4361844;32;319695;-75
2023/12/03 01:41:57;;;;;;;23.80;8.53;;;;;;;;;;4373492;32;318892;-77
2023/12/03 01:44:25;;;;;;;38.47;11.67;;;;;;;;;;4362172;32;318630;-75
2023/12/03 01:46:52;;;;;;;38.00;11.70;;;;;;;;;;4373064;32;319693;-74
2023/12/03 01:49:20;;;;;;;44.07;10.50;;;;;;;;;;4362848;32;319585;-75
2023/12/03 01:51:48;;;;;;;35.50;9.97;;;;;;;;;;4372983;32;319133;-75
2023/12/03 01:54:15;;;;;;;36.30;8.40;;;;;;;;;;4363146;32;319280;-75
2023/12/03 01:56:42;;;;;;;30.23;8.40;;;;;;;;;;4371466;32;318988;-73
2023/12/03 01:59:09;;;;;;;30.13;8.17;;;;;;;;;;4371701;32;318113;-76
2023/12/03 02:01:38;;;;;;;26.80;7.53;;;;;;;;;;4361842;32;319044;-78
2023/12/03 02:04:05;;;;;;;37.50;8.40;;;;;;;;;;4373081;32;318867;-75
2023/12/03 02:06:32;;;;;;;36.37;8.60;;;;;;;;;;4362370;32;318645;-75
2023/12/03 02:08:59;;;;;;;21.10;6.90;;;;;;;;;;4372760;32;317964;-75
2023/12/03 02:11:26;;;;;;;25.43;9.37;;;;;;;;;;4362547;32;318711;-78
2023/12/03 02:13:53;;;;;;;27.03;9.57;;;;;;;;;;4371591;32;318301;-74
2023/12/03 02:16:21;;;;;;;29.93;11.00;;;;;;;;;;4361368;32;318728;-74
2023/12/03 02:18:49;;;;;;;29.70;10.17;;;;;;;;;;4372353;32;319543;-74
2023/12/03 02:21:16;;;;;;;26.77;7.07;;;;;;;;;;4361684;32;319930;-73
2023/12/03 02:23:46;;;;;;;26.20;8.43;;;;;;;;;;4371382;32;318846;-74
2023/12/03 02:26:13;;;;;;;24.97;6.27;;;;;;;;;;4358306;32;318773;-74
2023/12/03 02:28:40;;;;;;;21.70;5.87;;;;;;;;;;4373744;32;418718;-77
2023/12/03 02:31:07;;;;;;;24.80;6.37;;;;;;;;;;4385166;32;354629;-77
2023/12/03 02:33:34;;;;;;;35.07;7.70;;;;;;;;;;4376301;32;318673;-76
2023/12/03 02:36:01;;;;;;;27.37;6.63;;;;;;;;;;4386724;32;318244;-78
2023/12/03 02:38:28;;;;;;;25.73;6.73;;;;;;;;;;4377684;32;318661;-75
2023/12/03 02:40:58;;;;;;;28.53;7.30;;;;;;;;;;4387320;32;318849;-74
2023/12/03 02:43:25;;;;;;;29.00;6.97;;;;;;;;;;4377331;32;319897;-77
2023/12/03 02:45:52;;;;;;;25.20;6.40;;;;;;;;;;4387407;32;318823;-78
2023/12/03 02:48:19;;;;;;;34.90;7.77;;;;;;;;;;4378778;32;318964;-79
2023/12/03 02:50:46;;;;;;;35.47;7.97;;;;;;;;;;4389803;32;318721;-78
2023/12/03 02:53:13;;;;;;;32.93;8.73;;;;;;;;;;4388939;32;317824;-76
2023/12/03 02:55:41;;;;;;;28.27;9.30;;;;;;;;;;4378628;32;318491;-78
2023/12/03 02:58:09;;;;;;;32.40;10.47;;;;;;;;;;4389385;32;318596;-76
2023/12/03 03:00:36;;;;;;;35.17;11.25;;;;;;;;;;4376634;32;355548;-74
2023/12/03 03:03:05;;;;;;;23.73;9.60;;;;;;;;;;4376291;32;348197;-74
2023/12/03 03:05:32;;;;;;;46.77;10.77;;;;;;;;;;4387535;32;318582;-74
2023/12/03 03:07:59;;;;;;;38.27;14.60;;;;;;;;;;4377198;32;319463;-74
2023/12/03 03:10:26;;;;;;;44.83;14.60;;;;;;;;;;4386056;32;340375;-74
2023/12/03 03:12:53;;;;;;;40.50;15.67;;;;;;;;;;4387092;32;319617;-74
2023/12/03 03:15:21;;;;;;;43.33;13.83;;;;;;;;;;4374375;32;417420;-73
2023/12/03 03:17:48;;;;;;;42.43;16.23;;;;;;;;;;4385775;32;318945;-74
2023/12/03 03:20:17;;;;;;;33.23;15.23;;;;;;;;;;4375733;32;319123;-77
2023/12/03 03:22:44;;;;;;;42.80;14.50;;;;;;;;;;4386847;32;319458;-74
2023/12/03 03:25:11;;;;;;;36.20;14.63;;;;;;;;;;4376420;32;319598;-75
2023/12/03 03:27:38;;;;;;;42.17;15.63;;;;;;;;;;4386952;32;319583;-74
2023/12/03 03:30:07;;;;;;;33.17;12.73;;;;;;;;;;4374791;32;336777;-77
2023/12/03 03:32:35;;;;;;;42.47;12.47;;;;;;;;;;4386293;32;319479;-75
2023/12/03 03:35:03;;;;;;;28.90;12.17;;;;;;;;;;4374912;32;319651;-74
2023/12/03 03:37:30;;;;;;;36.40;12.30;;;;;;;;;;4385541;32;319552;-74
2023/12/03 03:39:57;;;;;;;30.07;11.17;;;;;;;;;;4375397;32;319507;-74
2023/12/03 03:42:24;;;;;;;41.37;12.93;;;;;;;;;;4384614;32;347146;-74
2023/12/03 03:44:51;;;;;;;38.17;13.33;;;;;;;;;;4386532;32;319452;-76
2023/12/03 03:47:18;;;;;;;48.17;11.83;;;;;;;;;;4376746;32;319553;-74
2023/12/03 03:49:46;;;;;;;36.40;12.73;;;;;;;;;;4386690;32;319696;-77
2023/12/03 03:52:13;;;;;;;41.97;13.05;;;;;;;;;;4375413;32;334225;-74
2023/12/03 03:54:41;;;;;;;30.20;11.93;;;;;;;;;;4385346;32;319460;-77
2023/12/03 03:57:08;;;;;;;36.93;13.73;;;;;;;;;;4376261;32;319374;-75
2023/12/03 03:59:35;;;;;;;29.40;11.10;;;;;;;;;;4386440;32;319486;-74
2023/12/03 04:02:02;;;;;;;28.47;11.53;;;;;;;;;;4376363;32;319452;-73
2023/12/03 04:04:29;;;;;;;33.33;13.97;;;;;;;;;;4386721;32;319511;-74
2023/12/03 04:06:57;;;;;;;43.53;13.47;;;;;;;;;;4375640;32;320013;-74
2023/12/03 04:09:24;;;;;;;32.43;13.87;;;;;;;;;;4386420;32;318610;-78
2023/12/03 04:11:51;;;;;;;38.80;12.70;;;;;;;;;;4386255;32;318855;-76
2023/12/03 04:14:19;;;;;;;38.60;13.03;;;;;;;;;;4376356;32;319393;-75
2023/12/03 04:16:46;;;;;;;32.07;12.23;;;;;;;;;;4386381;32;319652;-76
2023/12/03 04:19:13;;;;;;;34.80;12.23;;;;;;;;;;4376196;32;319437;-78
2023/12/03 04:21:40;;;;;;;35.30;12.33;;;;;;;;;;4386486;32;319587;-75
2023/12/03 04:24:08;;;;;;;29.97;9.23;;;;;;;;;;4368210;32;319512;-75
2023/12/03 04:26:36;;;;;;;34.83;11.37;;;;;;;;;;4384898;32;317691;-78
2023/12/03 04:29:04;;;;;;;30.20;9.17;;;;;;;;;;4376397;32;319351;-78
2023/12/03 04:31:30;;;;;;;26.87;9.23;;;;;;;;;;4386387;32;318512;-75
2023/12/03 04:33:57;;;;;;;30.30;12.43;;;;;;;;;;4375235;32;318903;-78
2023/12/03 04:36:26;;;;;;;34.60;11.50;;;;;;;;;;4385083;32;319585;-77
2023/12/03 04:38:54;;;;;;;31.30;10.13;;;;;;;;;;4384741;32;319627;-77
2023/12/03 04:41:23;;;;;;;31.87;10.60;;;;;;;;;;4386369;32;319483;-76
2023/12/03 04:43:50;;;;;;;35.43;10.10;;;;;;;;;;4388976;32;318888;-76
2023/12/03 04:46:16;;;;;;;41.13;10.77;;;;;;;;;;4378898;32;319463;-75
2023/12/03 04:48:44;;;;;;;28.63;11.83;;;;;;;;;;4388157;32;319566;-77
2023/12/03 04:51:13;;;;;;;36.80;11.57;;;;;;;;;;4378170;32;319466;-74
2023/12/03 04:53:39;;;;;;;39.50;14.97;;;;;;;;;;4388813;32;319516;-75
2023/12/03 04:56:08;;;;;;;45.40;16.07;;;;;;;;;;4377508;32;319513;-75
2023/12/03 04:58:36;;;;;;;46.17;20.30;;;;;;;;;;4389311;32;319410;-77
2023/12/03 05:01:04;;;;;;;47.33;17.73;;;;;;;;;;4378792;32;319438;-78
2023/12/03 05:03:31;;;;;;;37.07;13.57;;;;;;;;;;4388526;32;319677;-75
2023/12/03 05:05:57;;;;;;;33.80;13.00;;;;;;;;;;4377040;32;319728;-77
2023/12/03 05:08:24;;;;;;;43.03;14.57;;;;;;;;;;4387993;32;319511;-76
2023/12/03 05:10:51;;;;;;;36.47;14.00;;;;;;;;;;4387468;32;319422;-76
2023/12/03 05:13:18;;;;;;;29.00;12.83;;;;;;;;;;4374999;32;420695;-76
2023/12/03 05:15:47;;;;;;;41.87;12.40;;;;;;;;;;4386934;32;334602;-76
2023/12/03 05:18:14;;;;;;;38.53;16.30;;;;;;;;;;4378469;32;319393;-76
2023/12/03 05:20:41;;;;;;;39.50;15.07;;;;;;;;;;4386777;32;340795;-76
2023/12/03 05:23:08;;;;;;;49.37;15.83;;;;;;;;;;4376849;32;332322;-79
2023/12/03 05:25:35;;;;;;;42.05;15.43;;;;;;;;;;4386551;32;334617;-77
2023/12/03 05:28:02;;;;;;;39.87;16.93;;;;;;;;;;4376515;32;350398;-76
2023/12/03 05:30:29;;;;;;;56.70;21.90;;;;;;;;;;4386745;32;338240;-77
2023/12/03 05:32:57;;;;;;;51.50;21.77;;;;;;;;;;4376607;32;376203;-76
2023/12/03 05:35:24;;;;;;;56.43;23.23;;;;;;;;;;4387040;32;319509;-75
2023/12/03 05:37:52;;;;;;;67.70;26.73;;;;;;;;;;4386173;32;318664;-78
2023/12/03 05:40:18;;;;;;;71.10;29.57;;;;;;;;;;4374332;32;419151;-76
2023/12/03 05:42:46;;;;;;;61.17;25.67;;;;;;;;;;4387146;32;319295;-80
2023/12/03 05:45:13;;;;;;;52.90;20.63;;;;;;;;;;4376974;32;319779;-76
2023/12/03 05:47:41;;;;;;;45.27;15.67;;;;;;;;;;4387153;32;319717;-76
2023/12/03 05:50:10;;;;;;;33.37;12.40;;;;;;;;;;4378048;32;319293;-76
2023/12/03 05:52:37;;;;;;;38.37;13.17;;;;;;;;;;4387961;32;319387;-76
2023/12/03 05:55:04;;;;;;;31.43;13.27;;;;;;;;;;4377298;32;319568;-76
2023/12/03 05:57:31;;;;;;;49.43;15.23;;;;;;;;;;4386887;32;319375;-76
2023/12/03 05:59:58;;;;;;;35.20;14.33;;;;;;;;;;4376743;32;319420;-76
2023/12/03 06:02:25;;;;;;;48.00;16.77;;;;;;;;;;4387918;32;319824;-76
2023/12/03 06:04:52;;;;;;;37.00;14.23;;;;;;;;;;4388196;32;319376;-79
2023/12/03 06:07:20;;;;;;;47.10;16.30;;;;;;;;;;4377671;32;319349;-76
2023/12/03 06:09:47;;;;;;;37.30;14.93;;;;;;;;;;4385885;32;348048;-76
2023/12/03 06:12:14;;;;;;;35.87;14.93;;;;;;;;;;4375758;32;343210;-73
2023/12/03 06:14:41;;;;;;;33.93;14.03;;;;;;;;;;4386651;32;353030;-76
2023/12/03 06:17:08;;;;;;;37.97;11.20;;;;;;;;;;4376393;32;330409;-74
2023/12/03 06:19:35;;;;;;;36.17;13.93;;;;;;;;;;4387865;32;319200;-74
2023/12/03 06:22:02;;;;;;;49.23;12.47;;;;;;;;;;4375135;32;319200;-75
2023/12/03 06:24:31;;;;;;;31.93;11.27;;;;;;;;;;4399473;27;319326;-76
2023/12/03 06:26:58;;;;;;;32.90;11.13;;;;;;;;;;4392612;32;319414;-75
2023/12/03 06:29:24;;;;;;;31.20;9.90;;;;;;;;;;4402733;32;319464;-75
2023/12/03 06:31:53;;;;;;;28.07;11.23;;;;;;;;;;4401783;32;317967;-75
2023/12/03 06:34:19;;;;;;;42.03;11.33;;;;;;;;;;4388451;32;418781;-75
2023/12/03 06:36:46;;;;;;;29.27;11.27;;;;;;;;;;4401615;32;319289;-75
2023/12/03 06:39:13;;;;;;;26.77;9.70;;;;;;;;;;4391263;32;319296;-76
2023/12/03 06:41:42;;;;;;;44.33;12.17;;;;;;;;;;4401643;32;318039;-76
2023/12/03 06:44:09;;;;;;;46.87;17.00;;;;;;;;;;4392613;32;319307;-76
2023/12/03 06:46:42;;;;;;;57.00;23.57;;;;;;;;;;4401660;32;319197;-76
2023/12/03 06:49:10;;;;;;;60.10;25.10;;;;;;;;;;4392046;32;319348;-76
2023/12/03 06:51:37;;;;;;;64.10;24.93;;;;;;;;;;4402690;32;319173;-76
2023/12/03 06:54:04;;;;;;;58.90;26.10;;;;;;;;;;4392155;32;319255;-77
2023/12/03 06:56:31;;;;;;;54.17;25.53;;;;;;;;;;4401299;32;319214;-76
2023/12/03 06:59:00;;;;;;;53.80;25.67;;;;;;;;;;4391102;32;319289;-75
2023/12/03 07:01:27;;;;;;;55.13;28.67;;;;;;;;;;4402466;32;319139;-75
2023/12/03 07:03:56;;;;;;;44.27;21.17;;;;;;;;;;4391757;32;318578;-73
2023/12/03 07:06:23;;;;;;;42.27;17.20;;;;;;;;;;4400410;32;318598;-75
2023/12/03 07:08:50;;;;;;;32.13;11.17;;;;;;;;;;4400390;32;337624;-75
2023/12/03 07:11:18;;;;;;;27.77;10.40;;;;;;;;;;4392028;32;318695;-75
2023/12/03 07:13:47;;;;;;;27.60;9.90;;;;;;;;;;4400933;32;319111;-76
2023/12/03 07:16:16;;;;;;;25.37;8.97;;;;;;;;;;4390696;32;318264;-75
2023/12/03 07:18:43;;;;;;;38.17;15.17;;;;;;;;;;4402170;32;318426;-75
2023/12/03 07:21:11;;;;;;;37.80;12.80;;;;;;;;;;4391686;32;319668;-75
2023/12/03 07:23:38;;;;;;;31.33;9.53;;;;;;;;;;4401484;32;319612;-75
2023/12/03 07:26:09;;;;;;;31.20;9.47;;;;;;;;;;4391611;32;318267;-75
2023/12/03 07:28:36;;;;;;;33.13;9.00;;;;;;;;;;4400955;32;318421;-76
2023/12/03 07:31:04;;;;;;;31.43;10.87;;;;;;;;;;4390513;32;318352;-76
2023/12/03 07:33:33;;;;;;;27.63;8.93;;;;;;;;;;4401983;32;319264;-74
2023/12/03 07:36:00;;;;;;;23.13;8.17;;;;;;;;;;4391673;32;318291;-76
2023/12/03 07:38:26;;;;;;;29.63;9.63;;;;;;;;;;4401046;32;318051;-76
2023/12/03 07:40:54;;;;;;;29.17;9.60;;;;;;;;;;4396332;32;317858;-76
2023/12/03 07:43:21;;;;;;;29.03;9.63;;;;;;;;;;4402023;32;318452;-76
2023/12/03 07:45:47;;;;;;;40.47;9.63;;;;;;;;;;4400708;32;317674;-75
2023/12/03 07:48:14;;;;;;;36.40;15.33;;;;;;;;;;4389832;32;317652;-75
2023/12/03 07:50:43;;;;;;;49.87;19.83;;;;;;;;;;4400323;32;319226;-75
2023/12/03 07:53:10;;;;;;;47.87;21.50;;;;;;;;;;4389901;32;319244;-75
2023/12/03 07:55:37;;;;;;;50.00;23.40;;;;;;;;;;4401596;32;319607;-75
2023/12/03 07:58:04;;;;;;;51.33;24.23;;;;;;;;;;4391399;32;319447;-75
2023/12/03 08:00:31;;;;;;;54.83;23.17;;;;;;;;;;4401584;32;319292;-75
2023/12/03 08:02:58;;;;;;;48.60;22.87;;;;;;;;;;4391410;32;319273;-75
2023/12/03 08:05:25;;;;;;;47.57;21.50;;;;;;;;;;4401582;32;319474;-75
2023/12/03 08:07:53;;;;;;;59.73;24.43;;;;;;;;;;4401477;32;319344;-75
2023/12/03 08:10:20;;;;;;;47.23;14.57;;;;;;;;;;4388429;32;418860;-75
2023/12/03 08:12:47;;;;;;;47.87;19.80;;;;;;;;;;4401560;32;319272;-74
2023/12/03 08:15:14;;;;;;;56.23;23.10;;;;;;;;;;4391112;32;319369;-74
2023/12/03 08:17:41;;;;;;;44.77;20.93;;;;;;;;;;4402857;32;319403;-74
2023/12/03 08:20:10;;;;;;;39.53;17.23;;;;;;;;;;4394199;32;318905;-75
2023/12/03 08:22:37;;;;;;;45.20;14.77;;;;;;;;;;4404608;32;319499;-75
2023/12/03 08:25:07;;;;;;;38.67;17.53;;;;;;;;;;4393962;32;319268;-75
2023/12/03 08:27:34;;;;;;;53.80;18.07;;;;;;;;;;4403492;32;318696;-74
2023/12/03 08:30:01;;;;;;;55.03;23.33;;;;;;;;;;4393756;32;319465;-73
2023/12/03 08:32:28;;;;;;;62.53;20.40;;;;;;;;;;4403674;32;319621;-75
2023/12/03 08:34:55;;;;;;;39.80;15.50;;;;;;;;;;4394239;32;319623;-74
2023/12/03 08:37:22;;;;;;;40.37;14.33;;;;;;;;;;4404416;32;319606;-75
2023/12/03 08:39:49;;;;;;;30.97;12.57;;;;;;;;;;4403100;32;319280;-75
2023/12/03 08:42:19;;;;;;;42.97;18.23;;;;;;;;;;4393877;32;319478;-75
2023/12/03 08:44:46;;;;;;;48.27;18.17;;;;;;;;;;4404250;32;318862;-73
2023/12/03 08:47:13;;;;;;;38.13;15.53;;;;;;;;;;4392786;32;319395;-74
2023/12/03 08:49:40;;;;;;;32.23;10.67;;;;;;;;;;4403921;32;319790;-74
2023/12/03 08:52:08;;;;;;;34.13;10.80;;;;;;;;;;4392648;32;319102;-77
2023/12/03 08:54:35;;;;;;;33.67;11.50;;;;;;;;;;4403977;32;319435;-77
2023/12/03 08:57:03;;;;;;;28.60;8.33;;;;;;;;;;4393590;32;319306;-74
2023/12/03 08:59:31;;;;;;;37.90;9.60;;;;;;;;;;4402950;32;317707;-73
2023/12/03 09:01:58;;;;;;;29.43;10.83;;;;;;;;;;4394188;32;318452;-73
2023/12/03 09:04:25;;;;;;;27.83;11.30;;;;;;;;;;4403775;32;318693;-73
2023/12/03 09:06:52;;;;;;;31.53;9.67;;;;;;;;;;4403861;32;319416;-75
2023/12/03 09:09:19;;;;;;;31.70;10.83;;;;;;;;;;4391514;32;417753;-74
2023/12/03 09:11:46;;;;;;;53.57;10.70;;;;;;;;;;4404085;32;319210;-76
2023/12/03 09:14:13;;;;;;;24.40;8.10;;;;;;;;;;4391639;32;318953;-74
2023/12/03 09:16:41;;;;;;;36.63;11.13;;;;;;;;;;4402534;32;318477;-75
2023/12/03 09:19:08;;;;;;;20.07;7.77;;;;;;;;;;4393369;32;319489;-75
2023/12/03 09:21:35;;;;;;;22.67;6.37;;;;;;;;;;4403948;32;318758;-74
2023/12/03 09:24:02;;;;;;;19.70;5.70;;;;;;;;;;4395835;32;318397;-74
2023/12/03 09:26:29;;;;;;;36.23;12.07;;;;;;;;;;4405977;32;318352;-75
2023/12/03 09:28:56;;;;;;;18.73;8.77;;;;;;;;;;4392653;32;373123;-73
2023/12/03 09:31:24;;;;;;;13.83;5.23;;;;;;;;;;4405842;32;318315;-76
2023/12/03 09:33:53;;;;;;;19.83;5.50;;;;;;;;;;4403849;32;332008;-77
2023/12/03 09:36:20;;;;;;;12.60;5.93;;;;;;;;;;4392208;32;417859;-77
2023/12/03 09:38:47;;;;;;;20.73;6.30;;;;;;;;;;4404923;32;318234;-73
2023/12/03 09:41:17;;;;;;;18.40;5.40;;;;;;;;;;4395675;32;318472;-74
2023/12/03 09:43:48;;;;;;;21.23;9.17;;;;;;;;;;4404442;32;318414;-74
2023/12/03 09:46:15;;;;;;;24.93;9.97;;;;;;;;;;4392651;32;318351;-74
2023/12/03 09:48:43;;;;;;;22.63;10.10;;;;;;;;;;4402578;32;318431;-73
2023/12/03 09:51:13;;;;;;;22.97;10.47;;;;;;;;;;4392050;32;328556;-74
2023/12/03 09:53:44;;;;;;;15.10;8.07;;;;;;;;;;4403500;32;319469;-73
2023/12/03 09:56:12;;;;;;;17.43;8.13;;;;;;;;;;4393304;32;317678;-78
2023/12/03 09:58:42;;;;;;;18.03;8.13;;;;;;;;;;4402243;32;318305;-74
2023/12/03 10:01:09;;;;;;;16.53;7.57;;;;;;;;;;4391809;32;318239;-74
2023/12/03 10:03:36;;;;;;;22.37;9.97;;;;;;;;;;4402011;32;317748;-76
2023/12/03 10:06:04;;;;;;;13.33;4.27;;;;;;;;;;4391805;32;318687;-73
2023/12/03 10:08:34;;;;;;;15.97;5.77;;;;;;;;;;4401234;32;331159;-73
2023/12/03 10:11:02;;;;;;;12.30;4.67;;;;;;;;;;4391684;32;318469;-74
2023/12/03 10:13:31;;;;;;;19.60;5.73;;;;;;;;;;4402957;32;317623;-73
2023/12/03 10:15:58;;;;;;;16.30;6.97;;;;;;;;;;4391658;32;317623;-73
2023/12/03 10:18:26;;;;;;;18.23;6.47;;;;;;;;;;4401221;32;335453;-74
2023/12/03 10:21:05;;;;;;;15.23;5.33;;;;;;;;;;4401753;32;318486;-74
2023/12/03 10:23:34;;;;;;;26.60;8.73;;;;;;;;;;4388291;32;417627;-74
2023/12/03 10:26:11;;;;;;;17.50;6.97;;;;;;;;;;4392667;32;318457;-73
2023/12/03 10:28:39;;;;;;;18.33;7.50;;;;;;;;;;4402852;32;318668;-74
2023/12/03 10:31:07;;;;;;;33.77;14.23;;;;;;;;;;4392015;32;317658;-74
2023/12/03 10:33:34;;;;;;;29.37;13.27;;;;;;;;;;4401472;32;319498;-73
2023/12/03 10:36:03;;;;;;;33.17;17.43;;;;;;;;;;4392346;32;319603;-73
2023/12/03 10:38:38;;;;;;;24.43;10.93;;;;;;;;;;4401897;32;319455;-73
2023/12/03 10:41:08;;;;;;;16.90;6.87;;;;;;;;;;4391546;32;319292;-73
2023/12/03 10:43:36;;;;;;;12.60;3.53;;;;;;;;;;4401128;32;318325;-73
2023/12/03 10:46:05;;;;;;;11.27;4.50;;;;;;;;;;4391342;32;318340;-74
2023/12/03 10:48:35;;;;;;;7.77;3.73;;;;;;;;;;4401005;32;356514;-76
2023/12/03 10:51:05;;;;;;;10.47;4.57;;;;;;;;;;4390727;32;325873;-74
2023/12/03 10:53:33;;;;;;;10.83;6.20;;;;;;;;;;4402340;32;318287;-74
2023/12/03 10:56:04;;;;;;;12.30;5.30;;;;;;;;;;4391930;32;318440;-74
2023/12/03 10:58:32;;;;;;;15.07;6.80;;;;;;;;;;4400768;32;317492;-74
2023/12/03 11:01:02;;;;;;;19.17;7.20;;;;;;;;;;4369826;32;318460;-74
2023/12/03 11:03:41;;;;;;;10.17;5.80;;;;;;;;;;4402038;32;318355;-74
2023/12/03 11:06:12;;;;;;;22.10;8.67;;;;;;;;;;4390509;32;318376;-74
2023/12/03 11:08:41;;;;;;;26.20;11.67;;;;;;;;;;4402168;32;318359;-74
2023/12/03 11:11:10;;;;;;;18.73;9.33;;;;;;;;;;4390613;32;319343;-74
2023/12/03 11:13:37;;;;;;;23.53;10.17;;;;;;;;;;4401006;32;318309;-74
2023/12/03 11:16:06;;;;;;;25.77;11.57;;;;;;;;;;4391635;32;319512;-75
2023/12/03 11:18:35;;;;;;;25.00;13.03;;;;;;;;;;4401801;32;319052;-73
2023/12/03 11:21:11;;;;;;;35.90;13.47;;;;;;;;;;4390756;32;320175;-73
2023/12/03 11:23:54;;;;;;;26.13;14.13;;;;;;;;;;4391589;32;319457;-72
2023/12/03 11:26:25;;;;;;;32.53;17.03;;;;;;;;;;4390839;32;363177;-73
2023/12/03 11:28:53;;;;;;;34.37;18.47;;;;;;;;;;4402009;32;319415;-74
2023/12/03 11:31:20;;;;;;;40.57;20.70;;;;;;;;;;4401662;32;319352;-73
2023/12/03 11:33:52;;;;;;;28.83;17.23;;;;;;;;;;4387559;32;420184;-73
2023/12/03 11:36:19;;;;;;;25.13;15.10;;;;;;;;;;4400537;32;319442;-73
2023/12/03 11:38:47;;;;;;;39.80;16.53;;;;;;;;;;4387469;32;420717;-73
2023/12/03 11:41:14;;;;;;;35.47;14.87;;;;;;;;;;4401784;32;319349;-73
2023/12/03 11:43:42;;;;;;;19.57;8.30;;;;;;;;;;4391232;32;318756;-74
2023/12/03 11:46:10;;;;;;;19.30;8.30;;;;;;;;;;4399166;32;357690;-73
2023/12/03 11:48:38;;;;;;;23.00;10.17;;;;;;;;;;4390600;32;318320;-73
2023/12/03 11:51:08;;;;;;;26.57;13.13;;;;;;;;;;4401296;32;319501;-73
2023/12/03 11:53:49;;;;;;;42.27;16.57;;;;;;;;;;4390260;32;319375;-73
2023/12/03 11:56:20;;;;;;;26.80;12.80;;;;;;;;;;4401319;32;318647;-74
2023/12/03 11:58:50;;;;;;;24.83;13.40;;;;;;;;;;4388429;32;418964;-72
2023/12/03 12:01:17;;;;;;;30.60;14.00;;;;;;;;;;4400449;32;319792;-73
2023/12/03 12:03:44;;;;;;;35.10;15.17;;;;;;;;;;4391312;32;319177;-73
2023/12/03 12:06:11;;;;;;;28.10;13.93;;;;;;;;;;4401469;32;319331;-73
2023/12/03 12:08:39;;;;;;;34.07;13.87;;;;;;;;;;4390363;32;339776;-73
2023/12/03 12:11:06;;;;;;;34.73;18.90;;;;;;;;;;4399936;32;319182;-73
2023/12/03 12:13:34;;;;;;;34.97;18.43;;;;;;;;;;4391202;32;319429;-73
2023/12/03 12:16:03;;;;;;;23.57;12.93;;;;;;;;;;4388240;32;319233;-73
2023/12/03 12:18:30;;;;;;;19.77;11.30;;;;;;;;;;4390963;32;319318;-73
2023/12/03 12:21:07;;;;;;;24.43;12.20;;;;;;;;;;4401486;32;318643;-73
2023/12/03 12:23:37;;;;;;;20.97;11.80;;;;;;;;;;4390889;32;319379;-72
2023/12/03 12:26:05;;;;;;;12.30;8.90;;;;;;;;;;4400013;32;335985;-74
2023/12/03 12:28:32;;;;;;;12.80;8.90;;;;;;;;;;4391139;32;318390;-74
2023/12/03 12:31:00;;;;;;;14.37;8.90;;;;;;;;;;4399041;32;358147;-74
2023/12/03 12:33:29;;;;;;;16.33;9.43;;;;;;;;;;4390001;32;318423;-73
2023/12/03 12:36:01;;;;;;;15.10;8.73;;;;;;;;;;4401058;32;318345;-73
2023/12/03 12:38:28;;;;;;;17.17;9.67;;;;;;;;;;4389070;32;317848;-73
2023/12/03 12:40:56;;;;;;;22.27;14.70;;;;;;;;;;4401383;32;318144;-73
2023/12/03 12:43:23;;;;;;;20.50;11.83;;;;;;;;;;4391119;32;319746;-73
2023/12/03 12:45:50;;;;;;;28.13;16.70;;;;;;;;;;4401142;32;319255;-73
2023/12/03 12:48:25;;;;;;;26.33;16.13;;;;;;;;;;4399938;32;319587;-73
2023/12/03 12:50:53;;;;;;;35.77;22.70;;;;;;;;;;4387768;32;418593;-73
2023/12/03 12:53:21;;;;;;;20.87;13.80;;;;;;;;;;4399890;32;319415;-73
2023/12/03 12:55:48;;;;;;;23.23;15.87;;;;;;;;;;4387020;32;419267;-73
2023/12/03 12:58:15;;;;;;;10.60;7.50;;;;;;;;;;4400858;32;318744;-73
2023/12/03 13:00:42;;;;;;;9.13;6.70;;;;;;;;;;4390665;32;318286;-73
2023/12/03 13:03:09;;;;;;;25.27;15.67;;;;;;;;;;4402104;32;317272;-73
2023/12/03 13:05:36;;;;;;;24.20;15.40;;;;;;;;;;4392489;32;319641;-73
2023/12/03 13:08:05;;;;;;;13.27;9.27;;;;;;;;;;4402640;32;319293;-74
2023/12/03 13:10:34;;;;;;;10.37;7.47;;;;;;;;;;4393341;32;317561;-73
2023/12/03 13:13:01;;;;;;;15.87;10.73;;;;;;;;;;4402359;32;318463;-74
2023/12/03 13:15:28;;;;;;;26.90;19.47;;;;;;;;;;4393113;32;319359;-74
2023/12/03 13:17:55;;;;;;;16.30;11.50;;;;;;;;;;4403606;32;318595;-74
2023/12/03 13:20:23;;;;;;;22.13;9.30;;;;;;;;;;4393400;32;319308;-75
2023/12/03 13:22:50;;;;;;;12.37;8.73;;;;;;;;;;4402191;32;318448;-74
2023/12/03 13:25:20;;;;;;;13.63;9.67;;;;;;;;;;4402356;32;318145;-74
2023/12/03 13:27:47;;;;;;;15.67;8.43;;;;;;;;;;4389095;32;418496;-74
2023/12/03 13:30:14;;;;;;;10.43;7.87;;;;;;;;;;4402403;32;318454;-74
2023/12/03 13:32:42;;;;;;;16.77;10.87;;;;;;;;;;4393252;32;318398;-74
2023/12/03 13:35:12;;;;;;;26.03;17.37;;;;;;;;;;4403353;32;318739;-74
2023/12/03 13:37:39;;;;;;;61.53;35.67;;;;;;;;;;4392789;32;319403;-75
2023/12/03 13:40:10;;;;;;;44.53;26.03;;;;;;;;;;4403244;32;319633;-74
2023/12/03 13:42:38;;;;;;;19.07;12.60;;;;;;;;;;4391883;32;319252;-74
2023/12/03 13:45:07;;;;;;;16.40;12.73;;;;;;;;;;4403384;32;319097;-74
2023/12/03 13:47:34;;;;;;;20.80;13.77;;;;;;;;;;4392532;32;319393;-73
2023/12/03 13:50:03;;;;;;;17.13;12.17;;;;;;;;;;4401962;32;359095;-74
2023/12/03 13:52:30;;;;;;;13.93;10.27;;;;;;;;;;4391697;32;319878;-75
2023/12/03 13:54:58;;;;;;;15.93;12.17;;;;;;;;;;4403336;32;318934;-75
2023/12/03 13:57:25;;;;;;;14.37;10.23;;;;;;;;;;4392819;32;319486;-75
2023/12/03 13:59:54;;;;;;;28.37;15.57;;;;;;;;;;4402958;32;319559;-76
2023/12/03 14:02:21;;;;;;;22.13;13.40;;;;;;;;;;4392838;32;319810;-75
2023/12/03 14:04:48;;;;;;;20.83;14.27;;;;;;;;;;4402749;32;319764;-75
2023/12/03 14:07:16;;;;;;;17.03;11.50;;;;;;;;;;4402702;32;318663;-75
2023/12/03 14:09:43;;;;;;;22.27;16.20;;;;;;;;;;4391361;32;319595;-77
2023/12/03 14:12:10;;;;;;;29.07;17.77;;;;;;;;;;4403044;32;318709;-75